Time;durP1;ratioP1;P1;durP2;ratioP2;P2;SDS_P1;SDS_P2;PMS_P1;PMS_P2;Temp;Humidity;BMP_temperature;BMP_pressure;BME280_temperature;BME280_humidity;BME280_pressure;Samples;Min_cycle;Max_cycle;Signal;HPM_P1;HPM_P2
2023/09/03 00:00:58;;;;;;;19.33;12.55;;;;;;;19.02;73.93;102727.78;5029727;28;20376;-46
2023/09/03 00:03:23;;;;;;;18.00;11.65;;;;;;;19.03;73.72;102732.19;5029561;28;20030;-45
2023/09/03 00:05:56;;;;;;;16.98;11.43;;;;;;;19.01;73.87;102741.00;5029844;28;20029;-47
2023/09/03 00:08:22;;;;;;;20.73;13.02;;;;;;;18.96;73.85;102742.72;5031119;28;20033;-43
2023/09/03 00:10:52;;;;;;;18.52;12.38;;;;;;;19.01;73.53;102738.34;5030406;28;20034;-44
2023/09/03 00:13:18;;;;;;;23.85;14.18;;;;;;;18.95;73.75;102736.53;5029902;28;20033;-45
2023/09/03 00:15:43;;;;;;;22.35;13.15;;;;;;;18.85;74.45;102747.88;5028855;28;20037;-48
2023/09/03 00:18:11;;;;;;;21.77;13.32;;;;;;;18.89;74.41;102751.47;5029129;28;20025;-48
2023/09/03 00:20:37;;;;;;;21.75;13.73;;;;;;;18.81;74.97;102747.84;5028799;28;20136;-44
2023/09/03 00:23:02;;;;;;;19.67;12.20;;;;;;;18.86;74.32;102743.47;5029145;28;20504;-43
2023/09/03 00:25:27;;;;;;;21.40;13.07;;;;;;;18.86;74.42;102738.19;5044403;28;20030;-51
2023/09/03 00:27:53;;;;;;;22.25;13.27;;;;;;;18.81;74.78;102732.00;5028442;28;20034;-45
2023/09/03 00:30:18;;;;;;;22.30;12.70;;;;;;;18.80;74.46;102730.22;5029242;28;20039;-47
2023/09/03 00:32:44;;;;;;;22.20;13.32;;;;;;;18.77;74.33;102723.16;5044075;28;20495;-43
2023/09/03 00:35:09;;;;;;;22.45;12.75;;;;;;;18.74;74.48;102727.53;5029168;28;20037;-45
2023/09/03 00:37:34;;;;;;;19.95;12.60;;;;;;;18.77;74.06;102717.88;5028417;28;20034;-49
2023/09/03 00:40:00;;;;;;;19.98;12.63;;;;;;;18.78;73.90;102719.66;5028802;28;20510;-46
2023/09/03 00:42:26;;;;;;;23.45;14.43;;;;;;;18.73;74.33;102716.06;5029203;28;20421;-48
2023/09/03 00:44:52;;;;;;;21.35;12.80;;;;;;;18.70;74.38;102710.75;5028836;28;20050;-43
2023/09/03 00:47:18;;;;;;;23.23;14.07;;;;;;;18.69;74.41;102710.75;5030408;28;20496;-45
2023/09/03 00:49:44;;;;;;;19.50;12.45;;;;;;;18.68;74.34;102708.97;5033378;28;20029;-45
2023/09/03 00:52:11;;;;;;;21.67;13.30;;;;;;;18.69;74.17;102714.28;5034187;28;20091;-45
2023/09/03 00:54:37;;;;;;;22.90;13.43;;;;;;;18.68;74.15;102712.50;5033899;28;20117;-45
2023/09/03 00:57:03;;;;;;;22.75;13.80;;;;;;;18.64;74.38;102722.16;5034502;28;20093;-45
2023/09/03 00:59:30;;;;;;;24.67;14.48;;;;;;;18.58;74.56;102721.22;5034130;28;20041;-44
2023/09/03 01:01:56;;;;;;;27.10;13.95;;;;;;;18.54;74.64;102712.31;5032918;28;20037;-44
2023/09/03 01:04:22;;;;;;;22.60;14.10;;;;;;;18.56;74.68;102712.38;5032372;28;20060;-45
2023/09/03 01:06:51;;;;;;;23.58;14.27;;;;;;;18.57;74.69;102696.56;5031572;28;20057;-50
2023/09/03 01:09:18;;;;;;;21.67;12.60;;;;;;;18.56;74.70;102696.53;5032263;28;20044;-43
2023/09/03 01:11:57;;;;;;;20.88;13.10;;;;;;;18.54;74.72;102696.47;5031279;28;20045;-48
2023/09/03 01:14:38;;;;;;;19.95;13.05;;;;;;;18.49;74.85;102690.28;5032281;28;20064;-42
2023/09/03 01:17:25;;;;;;;26.42;13.07;;;;;;;18.49;74.56;102697.31;5031793;28;20029;-45
2023/09/03 01:20:07;;;;;;;22.80;12.63;;;;;;;18.44;74.76;102701.66;5031413;28;20043;-48
2023/09/03 01:22:51;;;;;;;22.27;13.50;;;;;;;18.44;74.76;102717.50;5031805;28;20413;-47
2023/09/03 01:25:38;;;;;;;21.20;12.93;;;;;;;18.47;74.55;102714.91;5032178;28;20047;-45
2023/09/03 01:28:22;;;;;;;21.23;12.38;;;;;;;18.42;74.71;102716.63;5031517;28;20025;-44
2023/09/03 01:30:48;;;;;;;23.58;13.50;;;;;;;18.42;74.88;102721.91;5031338;28;20033;-43
2023/09/03 01:33:16;;;;;;;24.67;13.60;;;;;;;18.40;74.78;102724.53;5032148;28;20029;-47
2023/09/03 01:35:42;;;;;;;22.55;12.88;;;;;;;18.41;74.78;102725.41;5031400;28;20044;-47
2023/09/03 01:38:08;;;;;;;20.33;12.93;;;;;;;18.47;74.48;102731.66;5031769;28;20025;-46
2023/09/03 01:40:33;;;;;;;22.63;12.07;;;;;;;18.45;74.57;102735.13;5031578;28;20063;-46
2023/09/03 01:42:58;;;;;;;23.95;13.43;;;;;;;18.44;74.71;102750.09;5032347;28;20033;-44
2023/09/03 01:45:35;;;;;;;22.58;13.10;;;;;;;18.50;74.41;102758.06;5032764;28;20037;-45
2023/09/03 01:48:13;;;;;;;24.27;14.40;;;;;;;18.41;74.82;102762.38;5031895;28;20079;-46
2023/09/03 01:51:09;;;;;;;24.92;14.48;;;;;;;18.29;75.36;102764.91;5032483;28;20143;-43
2023/09/03 01:53:44;;;;;;;22.75;13.48;;;;;;;18.34;75.23;102766.72;5034204;28;20494;-46
2023/09/03 01:56:11;;;;;;;23.33;13.60;;;;;;;18.33;75.22;102762.28;5032586;28;20131;-47
2023/09/03 01:58:39;;;;;;;24.77;14.05;;;;;;;18.37;75.12;102766.72;5030522;28;20149;-43
2023/09/03 02:01:05;;;;;;;23.63;13.88;;;;;;;18.33;75.34;102762.28;5029934;28;20038;-44
2023/09/03 02:03:32;;;;;;;21.23;13.25;;;;;;;18.36;75.55;102758.81;5031395;28;20040;-46
2023/09/03 02:05:57;;;;;;;24.40;13.45;;;;;;;18.38;75.40;102757.94;5030648;28;20033;-43
2023/09/03 02:08:23;;;;;;;22.83;12.45;;;;;;;18.37;75.35;102764.09;5031285;28;20121;-47
2023/09/03 02:10:48;;;;;;;20.13;12.35;;;;;;;18.37;75.29;102758.81;5031049;28;20037;-52
2023/09/03 02:13:13;;;;;;;22.92;12.63;;;;;;;18.38;75.32;102750.03;5031319;28;20041;-43
2023/09/03 02:15:39;;;;;;;22.67;12.77;;;;;;;18.37;75.26;102744.72;5030551;28;20514;-47
2023/09/03 02:18:04;;;;;;;21.75;12.57;;;;;;;18.37;75.03;102740.31;5030792;28;20712;-48
2023/09/03 02:20:29;;;;;;;20.23;12.23;;;;;;;18.39;75.00;102754.44;5031075;28;20522;-43
2023/09/03 02:22:55;;;;;;;19.10;11.50;;;;;;;18.39;75.21;102751.81;5030498;28;20041;-49
2023/09/03 02:25:20;;;;;;;17.88;10.85;;;;;;;18.41;75.30;102744.78;5030920;28;20067;-45
2023/09/03 02:27:46;;;;;;;18.10;10.70;;;;;;;18.40;75.36;102743.03;5030301;28;20124;-44
2023/09/03 02:30:11;;;;;;;18.75;10.77;;;;;;;18.40;75.24;102731.56;5030986;28;20056;-44
2023/09/03 02:32:37;;;;;;;19.95;11.27;;;;;;;18.40;75.14;102708.69;5030728;28;20128;-45
2023/09/03 02:35:02;;;;;;;17.83;10.38;;;;;;;18.39;75.43;102709.56;5030700;28;20488;-45
2023/09/03 02:37:28;;;;;;;21.67;11.10;;;;;;;18.41;75.22;102705.19;5031200;28;20071;-47
2023/09/03 02:39:53;;;;;;;18.15;10.80;;;;;;;18.38;75.47;102696.31;5031677;28;20079;-44
2023/09/03 02:42:19;;;;;;;17.05;10.32;;;;;;;18.38;75.38;102698.97;5032055;28;20507;-44
2023/09/03 02:44:44;;;;;;;17.30;9.52;;;;;;;18.38;75.49;102691.94;5032167;28;20055;-46
2023/09/03 02:47:09;;;;;;;15.75;9.70;;;;;;;18.38;75.51;102696.31;5032573;28;20120;-44
2023/09/03 02:49:34;;;;;;;17.05;9.73;;;;;;;18.39;75.50;102699.00;5031930;28;20064;-44
2023/09/03 02:52:00;;;;;;;16.10;9.82;;;;;;;18.41;75.36;102702.53;5030585;28;20385;-43
2023/09/03 02:54:25;;;;;;;13.73;8.85;;;;;;;18.44;75.52;102706.94;5034196;28;20114;-43
2023/09/03 02:56:51;;;;;;;15.57;8.48;;;;;;;18.44;75.56;102717.50;5032466;28;20496;-47
2023/09/03 02:59:16;;;;;;;14.95;8.20;;;;;;;18.48;75.66;102714.91;5030179;28;20129;-44
2023/09/03 03:01:42;;;;;;;14.57;8.55;;;;;;;18.47;75.56;102707.88;5029743;28;20029;-52
2023/09/03 03:04:07;;;;;;;11.90;7.40;;;;;;;18.49;75.47;102708.75;5030635;28;20042;-47
2023/09/03 03:06:33;;;;;;;15.13;8.30;;;;;;;18.48;75.65;102714.91;5030009;28;20033;-46
2023/09/03 03:08:58;;;;;;;13.75;7.72;;;;;;;18.53;75.53;102720.25;5030057;28;20729;-45
2023/09/03 03:11:23;;;;;;;13.25;7.82;;;;;;;18.53;75.65;102749.31;5029153;28;20041;-46
2023/09/03 03:13:51;;;;;;;12.85;7.85;;;;;;;18.51;75.63;102761.59;5028456;28;20061;-43
2023/09/03 03:16:17;;;;;;;11.80;7.43;;;;;;;18.55;75.71;102763.44;5030142;28;20095;-42
2023/09/03 03:18:44;;;;;;;14.18;8.07;;;;;;;18.52;75.91;102763.38;5029864;28;20029;-46
2023/09/03 03:21:14;;;;;;;14.57;7.90;;;;;;;18.53;75.85;102767.81;5029873;28;20056;-43
2023/09/03 03:23:41;;;;;;;12.10;7.90;;;;;;;18.56;75.73;102781.06;5029248;28;20087;-44
2023/09/03 03:26:07;;;;;;;14.23;8.13;;;;;;;18.60;75.42;102780.25;5029466;28;20083;-45
2023/09/03 03:28:34;;;;;;;15.45;8.75;;;;;;;18.54;75.55;102769.59;5029572;28;20037;-48
2023/09/03 03:31:12;;;;;;;13.25;7.70;;;;;;;18.50;75.43;102766.00;5029229;28;20044;-44
2023/09/03 03:33:39;;;;;;;12.95;7.72;;;;;;;18.52;75.39;102763.38;5029351;28;20040;-45
2023/09/03 03:36:05;;;;;;;13.70;8.05;;;;;;;18.45;75.54;102750.97;5029762;28;20026;-49
2023/09/03 03:38:30;;;;;;;14.93;8.75;;;;;;;18.47;75.46;102757.19;5030405;28;20033;-44
2023/09/03 03:41:08;;;;;;;12.75;8.05;;;;;;;18.46;75.35;102761.56;5029652;28;20030;-46
2023/09/03 03:43:38;;;;;;;13.95;8.15;;;;;;;18.46;75.46;102768.59;5028985;28;20711;-42
2023/09/03 03:46:05;;;;;;;14.80;8.80;;;;;;;18.49;75.12;102771.25;5029204;28;20472;-46
2023/09/03 03:48:31;;;;;;;12.98;8.38;;;;;;;18.48;74.92;102773.00;5029760;28;20049;-48
2023/09/03 03:50:57;;;;;;;13.90;8.40;;;;;;;18.40;75.30;102772.06;5029161;28;20131;-44
2023/09/03 03:53:22;;;;;;;13.93;8.40;;;;;;;18.36;75.30;102774.66;5029638;28;20120;-44
2023/09/03 03:55:55;;;;;;;14.65;8.93;;;;;;;18.30;75.71;102771.94;5028825;28;20579;-49
2023/09/03 03:58:20;;;;;;;15.70;9.25;;;;;;;18.27;75.84;102769.25;5029276;28;20036;-46
2023/09/03 04:00:46;;;;;;;16.48;9.05;;;;;;;18.31;75.64;102768.41;5028679;28;20029;-45
2023/09/03 04:03:11;;;;;;;19.20;9.85;;;;;;;18.31;75.77;102765.78;5029310;28;20048;-43
2023/09/03 04:05:36;;;;;;;16.02;9.20;;;;;;;18.28;76.25;102771.94;5029025;28;20029;-45
2023/09/03 04:08:02;;;;;;;16.98;9.77;;;;;;;18.42;75.51;102774.72;5028969;28;20714;-46
2023/09/03 04:10:27;;;;;;;14.98;8.60;;;;;;;18.45;75.51;102780.91;5029472;28;20164;-45
2023/09/03 04:12:52;;;;;;;14.85;8.68;;;;;;;18.37;75.60;102774.66;5028865;28;20061;-47
2023/09/03 04:15:17;;;;;;;14.95;8.82;;;;;;;18.36;75.92;102772.03;5029485;28;20451;-45
2023/09/03 04:17:43;;;;;;;14.68;8.90;;;;;;;18.33;75.91;102762.28;5028721;28;20048;-48
2023/09/03 04:20:09;;;;;;;15.60;9.35;;;;;;;18.33;76.01;102764.06;5029319;28;20041;-49
2023/09/03 04:22:37;;;;;;;15.25;9.30;;;;;;;18.34;75.91;102764.06;5030746;28;20665;-44
2023/09/03 04:25:02;;;;;;;15.98;8.88;;;;;;;18.31;76.18;102757.84;5033362;28;20325;-44
2023/09/03 04:27:28;;;;;;;15.82;8.70;;;;;;;18.38;75.74;102768.50;5033360;28;20447;-47
2023/09/03 04:29:53;;;;;;;14.02;8.57;;;;;;;18.45;75.53;102772.09;5031362;28;20029;-45
2023/09/03 04:32:18;;;;;;;14.40;8.95;;;;;;;18.39;75.91;102774.69;5033041;28;20037;-47
2023/09/03 04:34:44;;;;;;;14.13;8.80;;;;;;;18.39;76.14;102777.31;5032189;28;20132;-44
2023/09/03 04:37:09;;;;;;;15.02;9.05;;;;;;;18.26;76.66;102773.66;5032976;28;20103;-49
2023/09/03 04:39:34;;;;;;;13.63;8.32;;;;;;;18.34;76.13;102765.81;5032607;28;20021;-43
2023/09/03 04:42:00;;;;;;;13.55;8.20;;;;;;;18.42;75.59;102777.38;5032845;28;20037;-46
2023/09/03 04:44:25;;;;;;;17.05;9.55;;;;;;;18.35;75.85;102780.81;5033225;28;20500;-44
2023/09/03 04:46:50;;;;;;;15.95;8.82;;;;;;;18.33;75.97;102778.13;5032991;28;20099;-44
2023/09/03 04:49:16;;;;;;;15.25;8.93;;;;;;;18.33;75.97;102782.53;5034347;28;20400;-47
2023/09/03 04:51:42;;;;;;;15.00;8.82;;;;;;;18.33;75.92;102783.41;5034171;28;20076;-46
2023/09/03 04:54:08;;;;;;;16.02;8.75;;;;;;;18.28;75.99;102779.84;5034643;28;20029;-43
2023/09/03 04:56:33;;;;;;;15.77;8.55;;;;;;;18.18;76.42;102796.41;5033764;28;20064;-44
2023/09/03 04:58:58;;;;;;;13.88;8.07;;;;;;;18.30;75.98;102799.22;5033960;28;20030;-43
2023/09/03 05:01:24;;;;;;;13.82;8.52;;;;;;;18.29;76.29;102793.94;5034508;28;20108;-42
2023/09/03 05:03:49;;;;;;;14.88;8.20;;;;;;;18.29;76.26;102796.56;5033389;28;20116;-45
2023/09/03 05:06:16;;;;;;;14.85;8.43;;;;;;;18.32;76.25;102794.84;5032491;28;20037;-47
2023/09/03 05:08:43;;;;;;;15.00;8.77;;;;;;;18.32;76.39;102794.84;5033145;28;20594;-42
2023/09/03 05:11:12;;;;;;;13.30;7.68;;;;;;;18.33;76.23;102799.25;5033964;28;20045;-47
2023/09/03 05:13:40;;;;;;;15.10;8.32;;;;;;;18.33;76.37;102801.91;5033026;28;20030;-45
2023/09/03 05:16:06;;;;;;;14.95;8.05;;;;;;;18.36;76.46;102804.56;5032250;28;20045;-44
2023/09/03 05:18:33;;;;;;;11.80;7.32;;;;;;;18.44;76.20;102804.66;5032753;28;20034;-50
2023/09/03 05:21:05;;;;;;;14.48;7.65;;;;;;;18.50;76.26;102808.25;5033101;28;20084;-46
2023/09/03 05:23:30;;;;;;;13.35;8.00;;;;;;;18.42;76.51;102809.91;5033227;28;20059;-43
2023/09/03 05:25:55;;;;;;;15.73;8.57;;;;;;;18.40;76.86;102816.97;5031896;28;20116;-44
2023/09/03 05:28:20;;;;;;;15.35;8.18;;;;;;;18.51;76.79;102811.78;5032399;28;20067;-45
2023/09/03 05:30:48;;;;;;;15.10;8.30;;;;;;;18.50;77.08;102820.59;5031632;28;20030;-46
2023/09/03 05:33:15;;;;;;;15.00;8.43;;;;;;;18.56;76.97;102821.56;5031695;28;20129;-48
2023/09/03 05:35:41;;;;;;;15.63;8.50;;;;;;;18.64;76.93;102821.66;5031364;28;20033;-44
2023/09/03 05:38:06;;;;;;;13.50;8.07;;;;;;;18.80;76.78;102823.59;5031822;28;20046;-47
2023/09/03 05:40:32;;;;;;;12.18;7.22;;;;;;;18.91;76.62;102831.63;5033171;28;20091;-43
2023/09/03 05:42:58;;;;;;;12.57;7.47;;;;;;;18.98;76.49;102836.09;5032391;28;20038;-42
2023/09/03 05:45:23;;;;;;;15.52;8.50;;;;;;;18.96;76.59;102829.94;5033345;28;20379;-43
2023/09/03 05:47:48;;;;;;;14.55;8.15;;;;;;;18.95;76.69;102838.72;5033133;28;20086;-44
2023/09/03 05:50:14;;;;;;;13.23;8.00;;;;;;;19.04;76.80;102844.09;5035638;28;20036;-43
2023/09/03 05:52:39;;;;;;;14.32;7.80;;;;;;;19.07;76.51;102857.34;5033948;28;20068;-46
2023/09/03 05:55:05;;;;;;;13.77;7.93;;;;;;;19.15;76.79;102852.16;5033531;28;20064;-43
2023/09/03 05:57:30;;;;;;;12.90;8.23;;;;;;;19.21;76.54;102849.56;5033280;28;20038;-44
2023/09/03 05:59:56;;;;;;;12.77;8.25;;;;;;;19.29;76.30;102863.72;5032237;28;20192;-48
2023/09/03 06:02:21;;;;;;;11.90;7.03;;;;;;;19.47;76.43;102863.03;5032648;28;20068;-42
2023/09/03 06:04:49;;;;;;;12.10;7.43;;;;;;;19.50;76.25;102863.94;5030932;28;20763;-43
2023/09/03 06:07:15;;;;;;;12.13;7.50;;;;;;;19.59;76.17;102871.94;5031268;28;20459;-46
2023/09/03 06:09:40;;;;;;;13.23;7.75;;;;;;;19.72;76.09;102875.56;5031144;28;20040;-48
2023/09/03 06:12:06;;;;;;;11.45;7.72;;;;;;;19.57;75.71;102883.41;5031293;28;20726;-50
2023/09/03 06:14:31;;;;;;;12.77;8.10;;;;;;;19.68;75.48;102887.03;5031365;28;20495;-44
2023/09/03 06:16:57;;;;;;;11.90;7.18;;;;;;;20.01;75.41;102887.25;5030404;28;20064;-43
2023/09/03 06:19:23;;;;;;;10.65;7.57;;;;;;;20.07;74.61;102902.28;5031052;28;20029;-47
2023/09/03 06:21:48;;;;;;;10.63;7.10;;;;;;;20.13;74.53;102913.81;5030414;28;20037;-49
2023/09/03 06:24:15;;;;;;;10.40;6.97;;;;;;;20.31;73.95;102910.38;5031139;28;20396;-43
2023/09/03 06:26:41;;;;;;;9.95;7.40;;;;;;;20.58;73.30;102915.84;5030178;28;20034;-47
2023/09/03 06:29:07;;;;;;;9.88;6.85;;;;;;;20.90;73.00;102913.31;5030860;28;20403;-52
2023/09/03 06:31:32;;;;;;;11.05;7.25;;;;;;;20.94;71.01;102916.84;5031069;28;20063;-44
2023/09/03 06:33:57;;;;;;;11.88;7.57;;;;;;;20.81;71.45;102918.59;5030314;28;20029;-42
2023/09/03 06:36:23;;;;;;;9.85;7.40;;;;;;;20.91;70.03;102915.09;5031594;28;20061;-47
2023/09/03 06:38:48;;;;;;;10.80;7.65;;;;;;;21.14;69.58;102904.53;5031374;28;20061;-44
2023/09/03 06:41:13;;;;;;;8.65;6.90;;;;;;;21.93;69.29;102904.59;5030973;28;20120;-43
2023/09/03 06:43:39;;;;;;;9.52;7.25;;;;;;;22.91;64.80;102892.78;5030199;28;20176;-46
2023/09/03 06:46:04;;;;;;;11.00;8.05;;;;;;;23.42;61.03;102888.00;5030720;28;20037;-42
2023/09/03 06:48:29;;;;;;;11.35;7.57;;;;;;;23.56;61.17;102891.44;5030604;28;20044;-48
2023/09/03 06:50:56;;;;;;;10.60;8.18;;;;;;;23.50;60.24;102887.94;5030150;28;20029;-42
2023/09/03 06:53:21;;;;;;;11.35;9.40;;;;;;;23.35;58.75;102889.81;5030294;28;20034;-43
2023/09/03 06:55:47;;;;;;;14.43;8.70;;;;;;;23.79;58.33;102885.91;5029862;28;20034;-45
2023/09/03 06:58:12;;;;;;;11.23;8.60;;;;;;;24.02;57.29;102883.03;5030276;28;20049;-48
2023/09/03 07:00:38;;;;;;;11.07;8.73;;;;;;;23.65;58.68;102891.38;5029836;28;20057;-47
2023/09/03 07:03:03;;;;;;;12.80;9.10;;;;;;;23.52;58.40;102892.38;5030036;28;20609;-46
2023/09/03 07:05:29;;;;;;;12.00;8.35;;;;;;;23.98;59.52;102897.25;5030153;28;20041;-46
2023/09/03 07:07:55;;;;;;;14.30;9.80;;;;;;;24.05;57.46;102893.63;5029668;28;20029;-44
2023/09/03 07:10:20;;;;;;;12.68;8.43;;;;;;;24.64;56.29;102895.66;5029788;28;20037;-45
2023/09/03 07:12:45;;;;;;;13.27;8.95;;;;;;;24.55;56.32;102899.31;5029307;28;20034;-46
2023/09/03 07:15:11;;;;;;;12.07;8.93;;;;;;;24.78;54.75;102903.44;5030270;28;20045;-49
2023/09/03 07:17:36;;;;;;;11.55;8.57;;;;;;;25.86;51.76;102902.66;5027888;28;20025;-44
2023/09/03 07:20:02;;;;;;;12.13;9.05;;;;;;;25.66;50.66;102900.38;5030169;28;20025;-44
2023/09/03 07:22:28;;;;;;;13.18;9.05;;;;;;;25.10;53.62;102914.59;5028761;28;20083;-47
2023/09/03 07:24:53;;;;;;;11.48;8.90;;;;;;;25.13;52.29;102927.03;5029479;28;20038;-48
2023/09/03 07:27:19;;;;;;;13.77;8.63;;;;;;;25.90;50.57;102931.13;5030055;28;20511;-45
2023/09/03 07:29:44;;;;;;;9.98;6.95;;;;;;;26.64;48.90;102924.34;5029201;28;20033;-48
2023/09/03 07:32:09;;;;;;;11.95;8.38;;;;;;;26.34;48.16;102922.28;5029835;28;20419;-47
2023/09/03 07:34:35;;;;;;;10.30;7.13;;;;;;;26.93;46.67;102925.53;5029636;28;20033;-44
2023/09/03 07:37:00;;;;;;;10.27;7.68;;;;;;;26.30;48.56;102925.03;5029720;28;20033;-44
2023/09/03 07:39:25;;;;;;;11.00;8.05;;;;;;;26.31;48.46;102926.81;5029764;28;20033;-45
2023/09/03 07:41:56;;;;;;;11.82;7.93;;;;;;;27.09;46.33;102934.06;5028869;28;20632;-45
2023/09/03 07:44:22;;;;;;;10.52;7.53;;;;;;;26.98;45.96;102928.97;5029677;28;20033;-44
2023/09/03 07:46:47;;;;;;;10.20;7.63;;;;;;;25.46;50.54;102943.41;5029044;28;20060;-48
2023/09/03 07:49:12;;;;;;;11.20;8.38;;;;;;;24.87;53.05;102938.91;5029416;28;20034;-47
2023/09/03 07:51:38;;;;;;;13.27;8.50;;;;;;;24.35;54.46;102935.09;5028736;28;20400;-44
2023/09/03 07:54:03;;;;;;;11.90;8.38;;;;;;;24.31;54.15;102934.25;5029371;28;20064;-45
2023/09/03 07:56:30;;;;;;;11.15;7.97;;;;;;;24.48;54.91;102944.72;5030149;28;20128;-48
2023/09/03 07:58:55;;;;;;;9.95;7.30;;;;;;;25.08;51.87;102940.41;5035269;28;20392;-46
2023/09/03 08:01:21;;;;;;;10.07;7.30;;;;;;;25.18;51.46;102941.19;5036451;28;20228;-46
2023/09/03 08:03:46;;;;;;;13.05;7.88;;;;;;;24.96;52.14;102938.78;5035770;28;20087;-44
2023/09/03 08:06:13;;;;;;;12.18;8.00;;;;;;;24.55;54.06;102949.09;5035958;28;20410;-49
2023/09/03 08:08:39;;;;;;;11.45;7.72;;;;;;;24.59;54.68;102942.81;5035598;28;20033;-48
2023/09/03 08:11:04;;;;;;;13.63;8.00;;;;;;;24.23;54.72;102939.66;5035958;28;20033;-46
2023/09/03 08:13:29;;;;;;;12.48;8.10;;;;;;;24.02;55.17;102945.19;5035803;28;20048;-45
2023/09/03 08:15:55;;;;;;;10.93;7.75;;;;;;;23.63;57.75;102941.09;5035347;28;20073;-47
2023/09/03 08:18:21;;;;;;;12.45;7.70;;;;;;;23.88;57.50;102948.88;5033669;28;20041;-44
2023/09/03 08:20:49;;;;;;;9.35;7.25;;;;;;;23.97;56.45;102947.00;5035241;28;20033;-43
2023/09/03 08:23:14;;;;;;;9.88;7.32;;;;;;;23.65;58.09;102941.09;5035932;28;20025;-43
2023/09/03 08:25:41;;;;;;;10.57;7.57;;;;;;;23.76;58.40;102941.88;5035281;28;20492;-47
2023/09/03 08:28:08;;;;;;;11.30;8.10;;;;;;;23.56;58.20;102946.47;5035453;28;20136;-48
2023/09/03 08:30:34;;;;;;;11.27;7.60;;;;;;;24.01;57.43;102942.53;5035210;28;20051;-44
2023/09/03 08:32:59;;;;;;;10.90;7.45;;;;;;;24.17;56.02;102939.69;5035775;28;20491;-44
2023/09/03 08:35:24;;;;;;;11.00;7.30;;;;;;;24.53;54.77;102940.22;5035351;28;20041;-45
2023/09/03 08:37:50;;;;;;;10.82;6.82;;;;;;;24.70;55.41;102948.03;5035057;28;20039;-42
2023/09/03 08:40:18;;;;;;;9.38;7.00;;;;;;;24.92;53.55;102947.75;5035500;28;20033;-43
2023/09/03 08:42:46;;;;;;;11.43;7.82;;;;;;;24.51;54.81;102945.59;5035009;28;20044;-43
2023/09/03 08:45:12;;;;;;;11.68;7.40;;;;;;;24.28;55.81;102939.59;5035684;28;20218;-44
2023/09/03 08:47:43;;;;;;;10.68;7.13;;;;;;;24.61;54.92;102936.56;5034914;28;20102;-45
2023/09/03 08:50:10;;;;;;;8.77;6.80;;;;;;;24.95;54.51;102938.81;5035494;28;20037;-43
2023/09/03 08:52:37;;;;;;;12.40;7.03;;;;;;;24.95;53.72;102936.13;5035185;28;20078;-43
2023/09/03 08:55:03;;;;;;;10.40;6.88;;;;;;;24.98;54.90;102933.44;5035561;28;20041;-43
2023/09/03 08:57:30;;;;;;;8.98;6.70;;;;;;;25.16;53.74;102932.31;5035313;28;20391;-44
2023/09/03 08:59:56;;;;;;;11.05;7.28;;;;;;;24.77;53.42;102937.25;5035249;28;20057;-45
2023/09/03 09:02:22;;;;;;;8.52;6.10;;;;;;;25.18;52.79;102938.50;5035336;28;20123;-47
2023/09/03 09:04:48;;;;;;;8.93;5.97;;;;;;;25.09;52.60;102933.28;5035253;28;20503;-45
2023/09/03 09:07:14;;;;;;;7.35;5.15;;;;;;;25.45;51.29;102932.72;5036255;28;20033;-42
2023/09/03 09:09:40;;;;;;;8.32;5.63;;;;;;;25.66;51.55;102931.53;5032595;28;20026;-43
2023/09/03 09:12:12;;;;;;;6.95;5.45;;;;;;;25.84;49.38;102936.56;5031524;28;20525;-45
2023/09/03 09:15:00;;;;;;;7.38;5.03;;;;;;;25.62;49.70;102938.72;5032575;28;20071;-44
2023/09/03 09:17:28;;;;;;;6.90;4.80;;;;;;;26.05;46.95;102945.97;5032568;28;20348;-44
2023/09/03 09:19:57;;;;;;;6.78;4.45;;;;;;;26.05;48.67;102944.19;5031484;28;20033;-45
2023/09/03 09:22:22;;;;;;;6.88;4.20;;;;;;;25.93;47.21;102938.19;5032197;28;20106;-45
2023/09/03 09:24:49;;;;;;;8.43;4.43;;;;;;;26.03;47.23;102947.81;5031348;28;20029;-43
2023/09/03 09:27:16;;;;;;;6.28;4.00;;;;;;;26.29;47.07;102934.00;5032125;28;20049;-43
2023/09/03 09:29:42;;;;;;;7.05;3.97;;;;;;;26.35;45.57;102929.38;5031553;28;20539;-43
2023/09/03 09:32:23;;;;;;;6.80;4.00;;;;;;;25.98;48.63;102937.22;5020895;28;20038;-44
2023/09/03 09:34:49;;;;;;;6.00;4.25;;;;;;;26.02;47.51;102930.88;5031611;28;20547;-49
2023/09/03 09:37:16;;;;;;;8.80;3.53;;;;;;;26.13;46.54;102930.69;5032309;28;20125;-46
2023/09/03 09:39:50;;;;;;;6.20;3.40;;;;;;;26.02;48.12;102930.00;5032240;28;20033;-48
2023/09/03 09:42:19;;;;;;;5.43;2.70;;;;;;;26.16;42.39;102925.28;5032158;28;20501;-44
2023/09/03 09:44:50;;;;;;;5.10;2.90;;;;;;;26.32;43.80;102924.09;4969603;28;21219;-45
2023/09/03 09:47:17;;;;;;;5.60;3.10;;;;;;;25.91;45.39;102918.63;5004249;28;20072;-48
2023/09/03 09:49:43;;;;;;;5.22;3.17;;;;;;;26.28;46.62;102911.72;5032592;28;20049;-43
2023/09/03 09:52:09;;;;;;;7.35;3.78;;;;;;;26.26;47.00;102910.84;5032518;28;20411;-48
2023/09/03 09:54:41;;;;;;;6.32;3.90;;;;;;;26.23;47.70;102913.53;5031254;28;20049;-45
2023/09/03 09:57:21;;;;;;;6.40;4.00;;;;;;;26.56;44.01;102910.22;5030515;28;20492;-48
2023/09/03 10:00:03;;;;;;;5.13;3.30;;;;;;;26.94;42.99;102913.91;5031575;28;20558;-44
2023/09/03 10:02:28;;;;;;;5.97;4.13;;;;;;;26.86;41.55;102921.19;5033222;28;20030;-48
2023/09/03 10:04:55;;;;;;;5.10;3.72;;;;;;;27.23;44.26;102918.56;5032269;28;20456;-44
2023/09/03 10:07:20;;;;;;;6.93;3.92;;;;;;;27.06;42.42;102918.97;5032438;28;20052;-46
2023/09/03 10:09:46;;;;;;;4.30;3.10;;;;;;;27.48;42.51;102926.91;5032287;28;20029;-44
2023/09/03 10:12:12;;;;;;;4.60;3.38;;;;;;;27.40;41.60;102925.28;5032430;28;20454;-45
2023/09/03 10:14:39;;;;;;;5.38;3.22;;;;;;;27.36;41.65;102923.59;5031231;28;20030;-48
2023/09/03 10:17:07;;;;;;;4.45;2.70;;;;;;;27.46;41.87;102922.44;5031397;28;20101;-43
2023/09/03 10:19:50;;;;;;;4.38;3.35;;;;;;;27.19;41.86;102922.25;5031131;28;20043;-42
2023/09/03 10:22:18;;;;;;;6.50;3.75;;;;;;;27.36;42.34;102923.59;5031683;28;20040;-45
2023/09/03 10:25:02;;;;;;;5.22;3.85;;;;;;;27.27;43.88;102918.47;5030838;28;20033;-44
2023/09/03 10:27:31;;;;;;;;;;;;;;;27.31;43.39;102920.16;5035327;28;20040;-45
2023/09/03 10:29:59;;;;;;;3.95;2.95;;;;;;;27.41;41.26;102907.41;5032071;28;19922;-45
2023/09/03 10:32:27;;;;;;;3.88;2.60;;;;;;;27.18;42.26;102920.47;5029482;28;20455;-47
2023/09/03 10:34:52;;;;;;;4.55;2.80;;;;;;;27.42;41.41;102914.53;5030321;28;20416;-48
2023/09/03 10:37:18;;;;;;;4.82;2.58;;;;;;;27.61;40.29;102913.19;5031062;28;20034;-46
2023/09/03 10:39:45;;;;;;;4.53;3.10;;;;;;;27.61;39.99;102915.00;5031219;28;20029;-44
2023/09/03 10:42:26;;;;;;;4.47;2.67;;;;;;;27.38;39.36;102915.53;5031738;28;20038;-46
2023/09/03 10:44:53;;;;;;;4.55;2.33;;;;;;;27.62;41.16;102922.13;5030198;28;20060;-44
2023/09/03 10:47:19;;;;;;;4.72;2.60;;;;;;;27.59;38.53;102924.84;5030421;28;20057;-45
2023/09/03 10:49:46;;;;;;;9.07;3.08;;;;;;;27.63;39.17;102922.06;5021283;28;21403;-47
2023/09/03 10:52:28;;;;;;;4.28;2.50;;;;;;;27.75;39.28;102924.41;5015000;28;20117;-44
2023/09/03 10:55:21;;;;;;;7.30;2.50;;;;;;;27.81;40.43;102929.63;5029594;28;20454;-43
2023/09/03 10:57:48;;;;;;;24.70;3.60;;;;;;;28.05;41.20;102936.16;5029755;28;20041;-44
2023/09/03 11:00:16;;;;;;;4.95;2.40;;;;;;;28.08;40.68;102925.34;5005262;28;20083;-45
2023/09/03 11:02:43;;;;;;;30.80;3.40;;;;;;;27.59;41.19;102925.75;4983261;28;20037;-44
2023/09/03 11:05:22;;;;;;;22.75;3.20;;;;;;;28.01;41.11;102928.22;5030377;28;20510;-44
2023/09/03 11:08:08;;;;;;;9.75;2.60;;;;;;;28.04;40.89;102925.47;5029686;28;20151;-44
2023/09/03 11:10:36;;;;;;;3.88;2.38;;;;;;;27.93;38.88;102927.56;5029625;28;20107;-47
2023/09/03 11:13:04;;;;;;;4.75;2.65;;;;;;;27.97;39.71;102930.13;5030208;28;20037;-44
2023/09/03 11:15:29;;;;;;;3.70;2.50;;;;;;;27.69;42.26;102924.56;5029775;28;20600;-47
2023/09/03 11:17:57;;;;;;;9.90;3.55;;;;;;;27.61;41.16;102925.72;5029610;28;20083;-44